Decoded Metar for CYET (EDSON in AB, CANADA) (IATA:YET) | Meteo·Mobile Aviation Weather
aviador You're here:

CYET Decoded Metar

EDSON in AB, CANADA
Report Time2019-07-23 06:00:00
UTC Time2019-07-23 07:06:41
Flight Rules Old
Wind060° at 04 kt
W.Decomp.*RWY 07: 3.5 kt HW 1.9 kt LCW
Visibility9999 m
Phenomena:Shallow Snow Grains
Clouds:N/A
Expected CloudBase > 1,600 ft AGL from Temp-Dew spread
CeilingNone
Temp19°C (ISA +10)
Dew Point15°C (78% RH)
QNH1018 hPa
Density Alt4,275 ft
Elevation3,035 ft
Report Wrong Elevation
Raw Report
CYET 230600Z AUTO 06004KT 9SM 19/15 A3005 RMK CLD MISG SLP167
DENSITY ALT 4000FT=

Extra information for CYET:More info

Metar Taf Metar & Taf Last 4 Metars F.Rules Stats Wind Profile Meteogram Temp Stats Airport Information Weather charts Add Link Nearby VenuesMetar ALERT Operation Metar Decoded Social comments